»·PEaware :: N321TB KSAN-KAPV

N321TB :: KSAN-KAPV

FLIGHT INFORMATION

Flight Status: Arrived
Operator: Privately registered:
United States
More flights under this callsign
Pilot: Martin K. (31672)
Aircraft: CESSNA 172 SKYHAWK
(C172)
More flights by this aircraft type
Origin: KSAN San Diego Intl-Lindbergh
United States
Destination: KAPV Apple Valley
United States
More flights between these airports :: More routes between these airports
Route: +
File this flight plan on PilotEdge
Remarks:
Altitude:
(Current/Filed)
5,500ft
Speed:
(Current/Filed)
0kts
Departed: 08-Oct-20 03:52 PM
Arrived: 08-Oct-20 04:50 PM
Distance/Time
Traveled:
111nm/0:57
Distance/Time
To Go:
Arrived

Flight Plot

Page will automatically refresh every two minutes.

Flight plan parsing failed; only flown route is shown


Map Options




Map Legend


Flown Route
Filed Route
Departure Airport
Arrival Airport
Navaid (VOR, NDB)
Fix

Horizontal Profiles

Position Reports

Time Latitude Longitude Heading Altitude Ground
Speed
08-Oct-20 15:44 32.733821 -117.179744 196 20ft 0kts
08-Oct-20 15:45 32.733821 -117.179744 196 20ft 0kts
08-Oct-20 15:46 32.733821 -117.179744 196 20ft 0kts
08-Oct-20 15:47 32.733821 -117.179744 196 20ft 0kts
08-Oct-20 15:48 32.732347 -117.176955 119 20ft 12kts
08-Oct-20 15:49 32.730965 -117.175558 144 20ft 0kts
08-Oct-20 15:50 32.730861 -117.175477 148 20ft 6kts
08-Oct-20 15:51 32.732098 -117.183501 286 102ft 80kts
08-Oct-20 15:52 32.742379 -117.207615 316 915ft 92kts
08-Oct-20 15:53 32.763769 -117.226738 317 1549ft 103kts
08-Oct-20 15:54 32.790147 -117.250281 319 1608ft 124kts
08-Oct-20 15:55 32.817392 -117.273888 330 1934ft 119kts
08-Oct-20 15:56 32.853193 -117.269897 5 2028ft 126kts
08-Oct-20 15:57 32.886073 -117.262743 5 2522ft 116kts
08-Oct-20 15:58 32.917431 -117.255805 5 3016ft 113kts
08-Oct-20 15:59 32.948183 -117.248940 5 3511ft 112kts
08-Oct-20 16:00 32.979366 -117.242004 5 4009ft 116kts
08-Oct-20 16:01 33.011410 -117.237839 0 4506ft 115kts
08-Oct-20 16:02 33.043261 -117.234666 0 4999ft 115kts
08-Oct-20 16:03 33.074965 -117.233416 355 5494ft 113kts
08-Oct-20 16:04 33.106531 -117.232953 358 5989ft 114kts
08-Oct-20 16:05 33.138171 -117.231612 358 6487ft 114kts
08-Oct-20 16:06 33.169723 -117.230159 357 6981ft 113kts
08-Oct-20 16:07 33.201148 -117.228619 357 7474ft 112kts
08-Oct-20 16:08 33.232429 -117.227125 357 7966ft 112kts
08-Oct-20 16:09 33.263275 -117.225286 357 8452ft 110kts
08-Oct-20 16:10 33.298140 -117.224259 357 8454ft 134kts
08-Oct-20 16:11 33.336205 -117.224511 357 8454ft 138kts
08-Oct-20 16:12 33.374734 -117.224611 357 8454ft 138kts
08-Oct-20 16:13 33.413135 -117.224525 357 8454ft 138kts
08-Oct-20 16:14 33.451582 -117.224246 357 8454ft 138kts
08-Oct-20 16:15 33.489879 -117.223887 357 8454ft 137kts
08-Oct-20 16:16 33.527871 -117.223364 357 8454ft 136kts
08-Oct-20 16:17 33.565711 -117.222540 358 8454ft 136kts
08-Oct-20 16:18 33.603317 -117.220970 358 8454ft 135kts
08-Oct-20 16:19 33.640827 -117.219367 358 8454ft 134kts
08-Oct-20 16:20 33.678313 -117.217714 358 8454ft 134kts
08-Oct-20 16:21 33.715653 -117.216029 358 8454ft 134kts
08-Oct-20 16:22 33.753087 -117.214296 358 8455ft 134kts
08-Oct-20 16:23 33.790648 -117.212502 358 8453ft 135kts
08-Oct-20 16:24 33.828099 -117.210638 358 8451ft 135kts
08-Oct-20 16:25 33.865714 -117.208908 358 8448ft 135kts
08-Oct-20 16:26 33.903351 -117.207112 358 8446ft 135kts
08-Oct-20 16:27 33.940930 -117.205249 358 8445ft 135kts
08-Oct-20 16:28 33.978678 -117.203415 358 8445ft 136kts
08-Oct-20 16:30 34.016454 -117.201646 359 8446ft 136kts
08-Oct-20 16:31 34.054377 -117.199919 358 8446ft 136kts
08-Oct-20 16:32 34.092431 -117.198268 358 8447ft 137kts
08-Oct-20 16:33 34.130422 -117.196672 358 8448ft 136kts
08-Oct-20 16:34 34.167817 -117.195006 358 8450ft 132kts
08-Oct-20 16:35 34.204544 -117.193208 358 8452ft 132kts
08-Oct-20 16:36 34.241178 -117.191438 358 8454ft 132kts
08-Oct-20 16:37 34.278068 -117.189603 358 8454ft 133kts
08-Oct-20 16:38 34.315646 -117.187689 358 8274ft 143kts
08-Oct-20 16:39 34.354092 -117.185903 358 7763ft 134kts
08-Oct-20 16:40 34.391189 -117.184252 358 7257ft 134kts
08-Oct-20 16:41 34.426909 -117.182935 359 6476ft 117kts
08-Oct-20 16:42 34.459545 -117.183872 318 5474ft 117kts
08-Oct-20 16:42 34.480351 -117.205425 316 4639ft 119kts
08-Oct-20 16:44 34.514846 -117.222062 352 4060ft 116kts
08-Oct-20 16:45 34.546098 -117.219652 32 4107ft 115kts
08-Oct-20 16:46 34.575215 -117.201534 11 4030ft 122kts
08-Oct-20 16:46 34.600315 -117.195210 14 3860ft 97kts
08-Oct-20 16:48 34.604688 -117.176452 194 3440ft 70kts
08-Oct-20 16:49 34.587610 -117.182523 192 3095ft 60kts
08-Oct-20 16:49 34.579545 -117.185683 236 3066ft 17kts
08-Oct-20 16:50 34.580469 -117.186809 342 3066ft 4kts
08-Oct-20 16:51 34.580641 -117.187224 183 3066ft 0kts
08-Oct-20 16:52 34.580641 -117.187224 183 3066ft 0kts
08-Oct-20 16:53 34.580641 -117.187224 183 3066ft 0kts

Navigation Log

Ident Type
Flight plan parsing failed, navigation log unavailable